PWSweather.com
Personal Weather Stations
Station Observations
STWO1
East Side, Stillwater, OK 74075

East SideStillwater, OK 74075

Lat: 36.1242949, Lon: -97.044042

Elevation: 942

Station Type: Davis VP2

http://stillwaterweather.com

Latest ConditionsUpdated 5:10:01 PM CDT Friday, Oct 18, 2019
Currently Today's Max Today's Min Today's Average
Temperature 73.6°F23.1°C 75.0°F23.9°C 50.2°F10.1°C 60.8°F16.0°C
Dew Point 46.4°F8.0°C 52.1°F11.2°C 45.5°F7.5°C 47.5°F8.6°C
Winds 8.1 mph SE13.0 kmh SE 11.5 mph -18.5 kmh - - 6.3 mph 10.1 kmh
Wind Gusts 12.7 mph20.4 kmh 20.7 mph33.3 kmh - -
Humidity 38% 85% 36% 64%
Pressure 29.68 in1005.1 mb 29.89 in1012.2 mb 29.68 in1005.1 mb -
Hour Temp Dew Point Humidity Winds Wind Gusts Pressure Precip Precip Rate Daily Precip Total
05:10 PM 73.6°F23.1°C 46.4°F8.0°C 38% 8.1 mph SE13.0 kmh SE 12.7 mph20.4 kmh 29.68 in1005.1 mb - 0.00 in0.0 mm 0.00 in0.0 mm
05:00 PM 73.8°F23.2°C 46.6°F8.1°C 38% 8.1 mph SE13.0 kmh SE 12.7 mph20.4 kmh 29.68 in1005.1 mb - 0.00 in0.0 mm 0.00 in0.0 mm
04:50 PM 74.4°F23.6°C 46.5°F8.1°C 37% 10.4 mph SSE16.7 kmh SSE 15.0 mph24.1 kmh 29.68 in1005.1 mb - 0.00 in0.0 mm 0.00 in0.0 mm
04:40 PM 74.5°F23.6°C 46.5°F8.1°C 37% 9.2 mph SE14.8 kmh SE 12.7 mph20.4 kmh 29.68 in1005.1 mb - 0.00 in0.0 mm 0.00 in0.0 mm
04:30 PM 74.8°F23.8°C 46.0°F7.8°C 36% 8.1 mph S13.0 kmh S 11.5 mph18.5 kmh 29.69 in1005.4 mb - 0.00 in0.0 mm 0.00 in0.0 mm
04:20 PM 74.9°F23.8°C 46.2°F7.9°C 36% 9.2 mph SE14.8 kmh SE 13.8 mph22.2 kmh 29.69 in1005.4 mb - 0.00 in0.0 mm 0.00 in0.0 mm
04:10 PM 74.7°F23.7°C 46.7°F8.2°C 37% 8.1 mph SSE13.0 kmh SSE 11.5 mph18.5 kmh 29.69 in1005.4 mb - 0.00 in0.0 mm 0.00 in0.0 mm
04:00 PM 75.0°F23.9°C 46.2°F7.9°C 36% 9.2 mph SSE14.8 kmh SSE 16.1 mph25.9 kmh 29.69 in1005.4 mb - 0.00 in0.0 mm 0.00 in0.0 mm
03:50 PM 74.9°F23.8°C 46.1°F7.8°C 36% 8.1 mph SSE13.0 kmh SSE 11.5 mph18.5 kmh 29.68 in1005.1 mb - 0.00 in0.0 mm 0.00 in0.0 mm
03:40 PM 74.7°F23.7°C 46.0°F7.8°C 36% 11.5 mph SSE18.5 kmh SSE 15.0 mph24.1 kmh 29.69 in1005.4 mb - 0.00 in0.0 mm 0.00 in0.0 mm
03:30 PM 74.8°F23.8°C 46.8°F8.2°C 37% 8.1 mph SE13.0 kmh SE 15.0 mph24.1 kmh 29.69 in1005.4 mb - 0.00 in0.0 mm 0.00 in0.0 mm
03:20 PM 74.8°F23.8°C 47.5°F8.6°C 38% 10.4 mph SE16.7 kmh SE 15.0 mph24.1 kmh 29.70 in1005.8 mb - 0.00 in0.0 mm 0.00 in0.0 mm
03:10 PM 74.6°F23.7°C 48.0°F8.9°C 39% 10.4 mph S16.7 kmh S 16.1 mph25.9 kmh 29.71 in1006.1 mb - 0.00 in0.0 mm 0.00 in0.0 mm
03:00 PM 74.5°F23.6°C 47.9°F8.8°C 39% 11.5 mph SSE18.5 kmh SSE 19.6 mph31.5 kmh 29.71 in1006.1 mb - 0.00 in0.0 mm 0.00 in0.0 mm
02:50 PM 74.0°F23.3°C 48.8°F9.3°C 41% 6.9 mph SSE11.1 kmh SSE 10.4 mph16.7 kmh 29.72 in1006.4 mb - 0.00 in0.0 mm 0.00 in0.0 mm
02:40 PM 74.4°F23.6°C 49.8°F9.9°C 42% 6.9 mph S11.1 kmh S 15.0 mph24.1 kmh 29.73 in1006.8 mb - 0.00 in0.0 mm 0.00 in0.0 mm
02:30 PM 73.7°F23.2°C 49.8°F9.9°C 43% 6.9 mph S11.1 kmh S 12.7 mph20.4 kmh 29.73 in1006.8 mb - 0.00 in0.0 mm 0.00 in0.0 mm
02:20 PM 73.5°F23.1°C 50.2°F10.1°C 44% 9.2 mph S14.8 kmh S 16.1 mph25.9 kmh 29.74 in1007.1 mb - 0.00 in0.0 mm 0.00 in0.0 mm
02:10 PM 73.5°F23.1°C 50.2°F10.1°C 44% 6.9 mph S11.1 kmh S 13.8 mph22.2 kmh 29.74 in1007.1 mb - 0.00 in0.0 mm 0.00 in0.0 mm
02:00 PM 73.4°F23.0°C 50.8°F10.4°C 45% 9.2 mph SSE14.8 kmh SSE 11.5 mph18.5 kmh 29.75 in1007.5 mb - 0.00 in0.0 mm 0.00 in0.0 mm
01:50 PM 72.6°F22.6°C 51.2°F10.7°C 47% 10.4 mph SSE16.7 kmh SSE 20.7 mph33.3 kmh 29.76 in1007.8 mb - 0.00 in0.0 mm 0.00 in0.0 mm
01:40 PM 72.4°F22.4°C 51.0°F10.6°C 47% 8.1 mph S13.0 kmh S 16.1 mph25.9 kmh 29.77 in1008.1 mb - 0.00 in0.0 mm 0.00 in0.0 mm
01:30 PM 72.2°F22.3°C 50.9°F10.5°C 47% 6.9 mph S11.1 kmh S 16.1 mph25.9 kmh 29.77 in1008.1 mb - 0.00 in0.0 mm 0.00 in0.0 mm
01:20 PM 71.1°F21.7°C 50.4°F10.2°C 48% 11.5 mph S18.5 kmh S 16.1 mph25.9 kmh 29.78 in1008.5 mb - 0.00 in0.0 mm 0.00 in0.0 mm
01:10 PM 71.7°F22.1°C 52.1°F11.2°C 50% 5.8 mph SSE9.3 kmh SSE 10.4 mph16.7 kmh 29.78 in1008.5 mb - 0.00 in0.0 mm 0.00 in0.0 mm
01:00 PM 70.8°F21.6°C 50.1°F10.1°C 48% 8.1 mph S13.0 kmh S 11.5 mph18.5 kmh 29.79 in1008.8 mb - 0.00 in0.0 mm 0.00 in0.0 mm
12:50 PM 70.2°F21.2°C 51.2°F10.7°C 51% 8.1 mph S13.0 kmh S 13.8 mph22.2 kmh 29.80 in1009.1 mb - 0.00 in0.0 mm 0.00 in0.0 mm
12:40 PM 69.4°F20.8°C 50.5°F10.3°C 51% 10.4 mph SE16.7 kmh SE 15.0 mph24.1 kmh 29.80 in1009.1 mb - 0.00 in0.0 mm 0.00 in0.0 mm
12:30 PM 69.7°F20.9°C 50.7°F10.4°C 51% 8.1 mph SSE13.0 kmh SSE 13.8 mph22.2 kmh 29.81 in1009.5 mb - 0.00 in0.0 mm 0.00 in0.0 mm
12:20 PM 69.6°F20.9°C 51.7°F10.9°C 53% 10.4 mph SSE16.7 kmh SSE 16.1 mph25.9 kmh 29.82 in1009.8 mb - 0.00 in0.0 mm 0.00 in0.0 mm
12:10 PM 68.6°F20.3°C 51.2°F10.7°C 54% 6.9 mph S11.1 kmh S 11.5 mph18.5 kmh 29.82 in1009.8 mb - 0.00 in0.0 mm 0.00 in0.0 mm
12:00 PM 67.7°F19.8°C 51.0°F10.6°C 55% 8.1 mph SSE13.0 kmh SSE 13.8 mph22.2 kmh 29.82 in1009.8 mb - 0.00 in0.0 mm 0.00 in0.0 mm
11:50 AM 67.2°F19.6°C 50.5°F10.3°C 55% 6.9 mph S11.1 kmh S 11.5 mph18.5 kmh 29.82 in1009.8 mb - 0.00 in0.0 mm 0.00 in0.0 mm
11:40 AM 66.7°F19.3°C 50.9°F10.5°C 57% 9.2 mph SSE14.8 kmh SSE 15.0 mph24.1 kmh 29.82 in1009.8 mb - 0.00 in0.0 mm 0.00 in0.0 mm
11:30 AM 66.0°F18.9°C 49.9°F9.9°C 56% 11.5 mph SSE18.5 kmh SSE 17.3 mph27.8 kmh 29.82 in1009.8 mb - 0.00 in0.0 mm 0.00 in0.0 mm
11:20 AM 65.5°F18.6°C 50.3°F10.2°C 58% 6.9 mph S11.1 kmh S 10.4 mph16.7 kmh 29.83 in1010.2 mb - 0.00 in0.0 mm 0.00 in0.0 mm
11:10 AM 65.0°F18.3°C 50.3°F10.2°C 59% 8.1 mph SSE13.0 kmh SSE 15.0 mph24.1 kmh 29.83 in1010.2 mb - 0.00 in0.0 mm 0.00 in0.0 mm
11:00 AM 64.0°F17.8°C 50.7°F10.4°C 62% 9.2 mph S14.8 kmh S 15.0 mph24.1 kmh 29.83 in1010.2 mb - 0.00 in0.0 mm 0.00 in0.0 mm
10:50 AM 63.2°F17.3°C 49.5°F9.7°C 61% 11.5 mph SSE18.5 kmh SSE 16.1 mph25.9 kmh 29.84 in1010.5 mb - 0.00 in0.0 mm 0.00 in0.0 mm
10:40 AM 62.8°F17.1°C 49.6°F9.8°C 62% 8.1 mph SSW13.0 kmh SSW 16.1 mph25.9 kmh 29.85 in1010.8 mb - 0.00 in0.0 mm 0.00 in0.0 mm
10:30 AM 61.8°F16.6°C 50.3°F10.2°C 66% 5.8 mph S9.3 kmh S 9.2 mph14.8 kmh 29.85 in1010.8 mb - 0.00 in0.0 mm 0.00 in0.0 mm
10:20 AM 61.1°F16.2°C 50.0°F10.0°C 67% 6.9 mph S11.1 kmh S 10.4 mph16.7 kmh 29.85 in1010.8 mb - 0.00 in0.0 mm 0.00 in0.0 mm
10:10 AM 60.3°F15.7°C 49.7°F9.8°C 68% 6.9 mph S11.1 kmh S 11.5 mph18.5 kmh 29.86 in1011.2 mb - 0.00 in0.0 mm 0.00 in0.0 mm
10:00 AM 59.6°F15.3°C 49.4°F9.7°C 69% 9.2 mph SE14.8 kmh SE 19.6 mph31.5 kmh 29.86 in1011.2 mb - 0.00 in0.0 mm 0.00 in0.0 mm
09:50 AM 58.9°F14.9°C 49.9°F9.9°C 72% 5.8 mph S9.3 kmh S 11.5 mph18.5 kmh 29.86 in1011.2 mb - 0.00 in0.0 mm 0.00 in0.0 mm
09:40 AM 57.9°F14.4°C 49.3°F9.6°C 73% 8.1 mph S13.0 kmh S 11.5 mph18.5 kmh 29.86 in1011.2 mb - 0.00 in0.0 mm 0.00 in0.0 mm
09:30 AM 57.1°F13.9°C 48.9°F9.4°C 74% 6.9 mph SSE11.1 kmh SSE 13.8 mph22.2 kmh 29.87 in1011.5 mb - 0.00 in0.0 mm 0.00 in0.0 mm
09:20 AM 56.4°F13.6°C 48.9°F9.4°C 76% 6.9 mph SE11.1 kmh SE 10.4 mph16.7 kmh 29.86 in1011.2 mb - 0.00 in0.0 mm 0.00 in0.0 mm
09:10 AM 55.5°F13.1°C 48.1°F8.9°C 76% 9.2 mph SSE14.8 kmh SSE 11.5 mph18.5 kmh 29.87 in1011.5 mb - 0.00 in0.0 mm 0.00 in0.0 mm
09:00 AM 54.7°F12.6°C 48.0°F8.9°C 78% 5.8 mph SSE9.3 kmh SSE 15.0 mph24.1 kmh 29.87 in1011.5 mb - 0.00 in0.0 mm 0.00 in0.0 mm
08:50 AM 53.9°F12.2°C 47.9°F8.8°C 80% 5.8 mph S9.3 kmh S 10.4 mph16.7 kmh 29.87 in1011.5 mb - 0.00 in0.0 mm 0.00 in0.0 mm
08:40 AM 52.9°F11.6°C 47.2°F8.4°C 81% 5.8 mph SSE9.3 kmh SSE 11.5 mph18.5 kmh 29.87 in1011.5 mb - 0.00 in0.0 mm 0.00 in0.0 mm
08:30 AM 51.9°F11.1°C 46.9°F8.3°C 83% 4.6 mph SSE7.4 kmh SSE 6.9 mph11.1 kmh 29.87 in1011.5 mb - 0.00 in0.0 mm 0.00 in0.0 mm
08:20 AM 51.0°F10.6°C 46.6°F8.1°C 85% 4.6 mph S7.4 kmh S 5.8 mph9.3 kmh 29.87 in1011.5 mb - 0.00 in0.0 mm 0.00 in0.0 mm
08:10 AM 50.6°F10.3°C 46.3°F7.9°C 85% 4.6 mph SE7.4 kmh SE 8.1 mph13.0 kmh 29.87 in1011.5 mb - 0.00 in0.0 mm 0.00 in0.0 mm
08:00 AM 50.4°F10.2°C 46.1°F7.8°C 85% 5.8 mph SSE9.3 kmh SSE 9.2 mph14.8 kmh 29.87 in1011.5 mb - 0.00 in0.0 mm 0.00 in0.0 mm
07:50 AM 50.2°F10.1°C 45.9°F7.7°C 85% 5.8 mph SSE9.3 kmh SSE 11.5 mph18.5 kmh 29.87 in1011.5 mb - 0.00 in0.0 mm 0.00 in0.0 mm
07:40 AM 50.4°F10.2°C 46.1°F7.8°C 85% 6.9 mph SE11.1 kmh SE 10.4 mph16.7 kmh 29.87 in1011.5 mb - 0.00 in0.0 mm 0.00 in0.0 mm
07:30 AM 50.5°F10.3°C 46.1°F7.8°C 85% 5.8 mph SE9.3 kmh SE 9.2 mph14.8 kmh 29.87 in1011.5 mb - 0.00 in0.0 mm 0.00 in0.0 mm
07:20 AM 50.5°F10.3°C 46.2°F7.9°C 85% 4.6 mph SE7.4 kmh SE 11.5 mph18.5 kmh 29.88 in1011.9 mb - 0.00 in0.0 mm 0.00 in0.0 mm
07:10 AM 50.5°F10.3°C 46.1°F7.8°C 85% 4.6 mph SSE7.4 kmh SSE 8.1 mph13.0 kmh 29.88 in1011.9 mb - 0.00 in0.0 mm 0.00 in0.0 mm
07:00 AM 50.3°F10.2°C 45.6°F7.6°C 84% 4.6 mph SSE7.4 kmh SSE 8.1 mph13.0 kmh 29.88 in1011.9 mb - 0.00 in0.0 mm 0.00 in0.0 mm
06:50 AM 50.4°F10.2°C 45.7°F7.6°C 84% 5.8 mph SSE9.3 kmh SSE 6.9 mph11.1 kmh 29.88 in1011.9 mb - 0.00 in0.0 mm 0.00 in0.0 mm
06:40 AM 50.7°F10.4°C 45.7°F7.6°C 83% 3.5 mph SSE5.6 kmh SSE 4.6 mph7.4 kmh 29.88 in1011.9 mb - 0.00 in0.0 mm 0.00 in0.0 mm
06:30 AM 50.8°F10.4°C 45.8°F7.7°C 83% 5.8 mph SSE9.3 kmh SSE 6.9 mph11.1 kmh 29.88 in1011.9 mb - 0.00 in0.0 mm 0.00 in0.0 mm
06:20 AM 50.9°F10.5°C 45.9°F7.7°C 83% 4.6 mph SSE7.4 kmh SSE 6.9 mph11.1 kmh 29.88 in1011.9 mb - 0.00 in0.0 mm 0.00 in0.0 mm
06:10 AM 51.0°F10.6°C 45.7°F7.6°C 82% 3.5 mph SE5.6 kmh SE 3.5 mph5.6 kmh 29.88 in1011.9 mb - 0.00 in0.0 mm 0.00 in0.0 mm
06:00 AM 51.0°F10.6°C 45.7°F7.6°C 82% 3.5 mph SSE5.6 kmh SSE 5.8 mph9.3 kmh 29.88 in1011.9 mb - 0.00 in0.0 mm 0.00 in0.0 mm
05:50 AM 50.9°F10.5°C 45.6°F7.6°C 82% 2.3 mph SSE3.7 kmh SSE 3.5 mph5.6 kmh 29.88 in1011.9 mb - 0.00 in0.0 mm 0.00 in0.0 mm
05:40 AM 51.4°F10.8°C 45.8°F7.7°C 81% 2.3 mph S3.7 kmh S 3.5 mph5.6 kmh 29.88 in1011.9 mb - 0.00 in0.0 mm 0.00 in0.0 mm
05:30 AM 51.7°F10.9°C 45.7°F7.6°C 80% 3.5 mph S5.6 kmh S 4.6 mph7.4 kmh 29.88 in1011.9 mb - 0.00 in0.0 mm 0.00 in0.0 mm
05:20 AM 51.9°F11.1°C 45.9°F7.7°C 80% 2.3 mph SE3.7 kmh SE 3.5 mph5.6 kmh 29.87 in1011.5 mb - 0.00 in0.0 mm 0.00 in0.0 mm
05:10 AM 52.1°F11.2°C 45.8°F7.7°C 79% 3.5 mph SSE5.6 kmh SSE 6.9 mph11.1 kmh 29.87 in1011.5 mb - 0.00 in0.0 mm 0.00 in0.0 mm
05:00 AM 52.2°F11.2°C 45.9°F7.7°C 79% 4.6 mph SSE7.4 kmh SSE 6.9 mph11.1 kmh 29.87 in1011.5 mb - 0.00 in0.0 mm 0.00 in0.0 mm
04:50 AM 52.4°F11.3°C 45.7°F7.6°C 78% 5.8 mph S9.3 kmh S 6.9 mph11.1 kmh 29.87 in1011.5 mb - 0.00 in0.0 mm 0.00 in0.0 mm
04:40 AM 52.5°F11.4°C 45.8°F7.7°C 78% 3.5 mph SE5.6 kmh SE 5.8 mph9.3 kmh 29.87 in1011.5 mb - 0.00 in0.0 mm 0.00 in0.0 mm
04:30 AM 52.5°F11.4°C 45.8°F7.7°C 78% 4.6 mph SSE7.4 kmh SSE 3.5 mph5.6 kmh 29.87 in1011.5 mb - 0.00 in0.0 mm 0.00 in0.0 mm
04:20 AM 52.7°F11.5°C 46.0°F7.8°C 78% 4.6 mph SE7.4 kmh SE 5.8 mph9.3 kmh 29.87 in1011.5 mb - 0.00 in0.0 mm 0.00 in0.0 mm
04:10 AM 52.9°F11.6°C 45.9°F7.7°C 77% 3.5 mph SE5.6 kmh SE 5.8 mph9.3 kmh 29.87 in1011.5 mb - 0.00 in0.0 mm 0.00 in0.0 mm
04:00 AM 53.3°F11.8°C 45.9°F7.7°C 76% 4.6 mph SE7.4 kmh SE 8.1 mph13.0 kmh 29.87 in1011.5 mb - 0.00 in0.0 mm 0.00 in0.0 mm
03:50 AM 53.6°F12.0°C 46.2°F7.9°C 76% 3.5 mph SE5.6 kmh SE 5.8 mph9.3 kmh 29.88 in1011.9 mb - 0.00 in0.0 mm 0.00 in0.0 mm
03:40 AM 53.9°F12.2°C 46.2°F7.9°C 75% 3.5 mph S5.6 kmh S 3.5 mph5.6 kmh 29.88 in1011.9 mb - 0.00 in0.0 mm 0.00 in0.0 mm
03:30 AM 54.3°F12.4°C 46.2°F7.9°C 74% 3.5 mph SSE5.6 kmh SSE 5.8 mph9.3 kmh 29.87 in1011.5 mb - 0.00 in0.0 mm 0.00 in0.0 mm
03:20 AM 54.4°F12.4°C 45.9°F7.7°C 73% 3.5 mph SSE5.6 kmh SSE 4.6 mph7.4 kmh 29.88 in1011.9 mb - 0.00 in0.0 mm 0.00 in0.0 mm
03:10 AM 54.6°F12.6°C 46.1°F7.8°C 73% 4.6 mph S7.4 kmh S 8.1 mph13.0 kmh 29.88 in1011.9 mb - 0.00 in0.0 mm 0.00 in0.0 mm
03:00 AM 54.8°F12.7°C 45.9°F7.7°C 72% 3.5 mph SSE5.6 kmh SSE 6.9 mph11.1 kmh 29.88 in1011.9 mb - 0.00 in0.0 mm 0.00 in0.0 mm
02:50 AM 55.1°F12.8°C 45.9°F7.7°C 71% 2.3 mph S3.7 kmh S 3.5 mph5.6 kmh 29.88 in1011.9 mb - 0.00 in0.0 mm 0.00 in0.0 mm
02:40 AM 55.1°F12.8°C 45.9°F7.7°C 71% 4.6 mph S7.4 kmh S 5.8 mph9.3 kmh 29.88 in1011.9 mb - 0.00 in0.0 mm 0.00 in0.0 mm
02:30 AM 55.4°F13.0°C 45.8°F7.7°C 70% 3.5 mph SSE5.6 kmh SSE 5.8 mph9.3 kmh 29.88 in1011.9 mb - 0.00 in0.0 mm 0.00 in0.0 mm
02:20 AM 55.7°F13.2°C 45.7°F7.6°C 69% 3.5 mph SSE5.6 kmh SSE 5.8 mph9.3 kmh 29.88 in1011.9 mb - 0.00 in0.0 mm 0.00 in0.0 mm
02:10 AM 56.0°F13.3°C 45.6°F7.6°C 68% 3.5 mph S5.6 kmh S 5.8 mph9.3 kmh 29.88 in1011.9 mb - 0.00 in0.0 mm 0.00 in0.0 mm
02:00 AM 56.4°F13.6°C 45.6°F7.6°C 67% 4.6 mph SSE7.4 kmh SSE 6.9 mph11.1 kmh 29.87 in1011.5 mb - 0.00 in0.0 mm 0.00 in0.0 mm
01:50 AM 56.5°F13.6°C 45.7°F7.6°C 67% 3.5 mph SSE5.6 kmh SSE 4.6 mph7.4 kmh 29.87 in1011.5 mb - 0.00 in0.0 mm 0.00 in0.0 mm
01:40 AM 56.3°F13.5°C 45.5°F7.5°C 67% 5.8 mph SSE9.3 kmh SSE 10.4 mph16.7 kmh 29.87 in1011.5 mb - 0.00 in0.0 mm 0.00 in0.0 mm
01:30 AM 56.3°F13.5°C 45.5°F7.5°C 67% 5.8 mph SSE9.3 kmh SSE 8.1 mph13.0 kmh 29.87 in1011.5 mb - 0.00 in0.0 mm 0.00 in0.0 mm
01:20 AM 56.4°F13.6°C 45.6°F7.6°C 67% 4.6 mph SE7.4 kmh SE 5.8 mph9.3 kmh 29.87 in1011.5 mb - 0.00 in0.0 mm 0.00 in0.0 mm
01:10 AM 56.7°F13.7°C 45.5°F7.5°C 66% 2.3 mph SSE3.7 kmh SSE 4.6 mph7.4 kmh 29.87 in1011.5 mb - 0.00 in0.0 mm 0.00 in0.0 mm
01:00 AM 57.0°F13.9°C 45.7°F7.6°C 66% 4.6 mph SSE7.4 kmh SSE 5.8 mph9.3 kmh 29.88 in1011.9 mb - 0.00 in0.0 mm 0.00 in0.0 mm
12:50 AM 57.3°F14.1°C 45.6°F7.6°C 65% 5.8 mph SSE9.3 kmh SSE 8.1 mph13.0 kmh 29.88 in1011.9 mb - 0.00 in0.0 mm 0.00 in0.0 mm
12:40 AM 57.4°F14.1°C 45.7°F7.6°C 65% 4.6 mph S7.4 kmh S 6.9 mph11.1 kmh 29.88 in1011.9 mb - 0.00 in0.0 mm 0.00 in0.0 mm
12:30 AM 57.8°F14.3°C 45.7°F7.6°C 64% 3.5 mph S5.6 kmh S 4.6 mph7.4 kmh 29.88 in1011.9 mb - 0.00 in0.0 mm 0.00 in0.0 mm
12:20 AM 58.1°F14.5°C 45.9°F7.7°C 64% 4.6 mph SSE7.4 kmh SSE 6.9 mph11.1 kmh 29.88 in1011.9 mb - 0.00 in0.0 mm 0.00 in0.0 mm
12:10 AM 58.4°F14.7°C 45.8°F7.7°C 63% 2.3 mph S3.7 kmh S 4.6 mph7.4 kmh 29.89 in1012.2 mb - 0.00 in0.0 mm 0.00 in0.0 mm
12:00 AM 58.9°F14.9°C 45.9°F7.7°C 62% 6.9 mph S11.1 kmh S 11.5 mph18.5 kmh 29.89 in1012.2 mb - 0.00 in0.0 mm 0.00 in0.0 mm